Time;durP1;ratioP1;P1;durP2;ratioP2;P2;SDS_P1;SDS_P2;PMS_P1;PMS_P2;Temp;Humidity;BMP_temperature;BMP_pressure;BME280_temperature;BME280_humidity;BME280_pressure;Samples;Min_cycle;Max_cycle;Signal;HPM_P1;HPM_P2
2022/09/06 00:00:33;;;;;;;;;;;;;;;23.34;83.36;101579.97;4953220;28;20537;-62
2022/09/06 00:03:00;;;;;;;;;;;;;;;23.27;85.39;101580.81;4951273;28;20307;-64
2022/09/06 00:05:27;;;;;;;;;;;;;;;23.19;86.03;101578.41;4945133;28;19930;-62
2022/09/06 00:07:56;;;;;;;;;;;;;;;23.17;85.72;101583.13;4957392;28;19948;-62
2022/09/06 00:10:23;;;;;;;;;;;;;;;23.15;85.84;101573.66;4954278;28;20319;-62
2022/09/06 00:12:49;;;;;;;;;;;;;;;23.10;86.30;101580.47;4949592;28;19926;-62
2022/09/06 00:15:15;;;;;;;;;;;;;;;23.12;84.96;101574.91;4956836;28;19930;-62
2022/09/06 00:17:43;;;;;;;;;;;;;;;23.12;84.78;101576.78;4940348;28;19926;-62
2022/09/06 00:20:10;;;;;;;;;;;;;;;23.12;86.02;101577.59;4957805;28;20470;-61
2022/09/06 00:22:36;;;;;;;;;;;;;;;23.10;86.00;101574.31;4955666;28;19937;-63
2022/09/06 00:25:04;;;;;;;;;;;;;;;23.10;86.06;101577.78;4956399;28;19927;-62
2022/09/06 00:27:31;;;;;;;;;;;;;;;23.14;85.12;101575.53;4955153;28;20016;-62
2022/09/06 00:29:57;;;;;;;;;;;;;;;23.13;85.44;101570.38;4947446;28;20294;-62
2022/09/06 00:32:24;;;;;;;;;;;;;;;23.16;86.20;101572.63;4961888;28;20298;-62
2022/09/06 00:34:50;;;;;;;;;;;;;;;23.16;86.07;101565.41;4951635;28;20015;-61
2022/09/06 00:37:16;;;;;;;;;;;;;;;23.18;84.91;101551.84;4955011;28;19927;-62
2022/09/06 00:39:43;;;;;;;;;;;;;;;23.20;85.87;101545.22;4945221;28;19931;-62
2022/09/06 00:42:10;;;;;;;;;;;;;;;23.26;84.29;101538.22;4952179;28;20238;-62
2022/09/06 00:44:37;;;;;;;;;;;;;;;23.30;83.93;101539.41;4967836;28;20008;-62
2022/09/06 00:47:05;;;;;;;;;;;;;;;23.33;85.19;101532.84;4945674;28;19985;-62
2022/09/06 00:49:34;;;;;;;;;;;;;;;23.33;85.21;101530.16;4958615;28;19930;-62
2022/09/06 00:52:02;;;;;;;;;;;;;;;23.28;89.07;101538.81;4947032;28;19941;-62
2022/09/06 00:54:29;;;;;;;;;;;;;;;23.26;89.68;101540.88;4955696;28;19926;-61
2022/09/06 00:56:56;;;;;;;;;;;;;;;23.19;91.26;101545.44;4950308;28;20454;-61
2022/09/06 00:59:24;;;;;;;;;;;;;;;23.16;93.32;101570.78;4955882;28;20363;-61
2022/09/06 01:01:50;;;;;;;;;;;;;;;23.11;92.13;101575.97;4959905;28;19930;-61
2022/09/06 01:04:17;;;;;;;;;;;;;;;23.12;91.50;101595.50;4953362;28;19930;-61
2022/09/06 01:07:05;;;;;;;;;;;;;;;23.02;93.76;101587.88;4959798;28;20294;-62
2022/09/06 01:09:38;;;;;;;;;;;;;;;22.99;100.00;101591.81;4945516;28;20040;-61
2022/09/06 01:12:05;;;;;;;;;;;;;;;22.93;100.00;101597.16;4959268;28;20311;-61
2022/09/06 01:15:04;;;;;;;;;;;;;;;22.82;100.00;101607.47;4950326;28;19947;-61
2022/09/06 01:17:40;;;;;;;;;;;;;;;22.80;100.00;101616.75;4966080;28;19934;-63
2022/09/06 01:20:15;;;;;;;;;;;;;;;22.72;100.00;101620.47;4950604;28;19930;-61
2022/09/06 01:23:03;;;;;;;;;;;;;;;22.65;100.00;101622.31;4960681;28;20025;-61
2022/09/06 01:25:44;;;;;;;;;;;;;;;22.58;100.00;101619.66;4949060;28;20383;-62
2022/09/06 01:28:23;;;;;;;;;;;;;;;22.54;100.00;101617.59;4955475;28;19934;-62
2022/09/06 01:30:52;;;;;;;;;;;;;;;22.44;100.00;101620.66;4946939;28;19932;-63
2022/09/06 01:33:24;;;;;;;;;;;;;;;22.33;100.00;101626.66;4969468;28;19936;-60
2022/09/06 01:36:01;;;;;;;;;;;;;;;22.10;100.00;101642.00;4949914;28;19938;-60
2022/09/06 01:38:28;;;;;;;;;;;;;;;21.96;100.00;101634.16;4949679;28;19981;-62
2022/09/06 01:40:54;;;;;;;;;;;;;;;21.91;100.00;101635.59;4953490;28;19926;-61
2022/09/06 01:43:24;;;;;;;;;;;;;;;21.79;100.00;101636.38;4946594;28;19938;-62
2022/09/06 01:46:12;;;;;;;;;;;;;;;21.78;100.00;101642.72;4956815;28;19937;-62
2022/09/06 01:48:59;;;;;;;;;;;;;;;21.75;100.00;101629.78;4959272;28;20409;-61
2022/09/06 01:51:34;;;;;;;;;;;;;;;21.75;100.00;101627.94;4955840;28;20406;-62
2022/09/06 01:54:12;;;;;;;;;;;;;;;21.72;100.00;101623.84;4946038;28;19930;-61
2022/09/06 01:56:50;;;;;;;;;;;;;;;21.70;100.00;101622.41;4959030;28;20387;-62
2022/09/06 01:59:35;;;;;;;;;;;;;;;21.72;100.00;101604.31;4950216;28;19936;-62
2022/09/06 02:02:08;;;;;;;;;;;;;;;21.70;100.00;101593.03;4963598;28;19930;-62
2022/09/06 02:04:34;;;;;;;;;;;;;;;21.64;100.00;101593.81;4951231;28;20041;-62
2022/09/06 02:07:04;;;;;;;;;;;;;;;21.60;100.00;101600.56;4949714;28;19941;-61
2022/09/06 02:09:34;;;;;;;;;;;;;;;21.58;100.00;101591.94;4957915;28;20101;-62
2022/09/06 02:12:03;;;;;;;;;;;;;;;21.60;100.00;101582.72;4949356;28;20296;-62
2022/09/06 02:14:34;;;;;;;;;;;;;;;21.62;100.00;101566.50;4956764;28;19941;-62
2022/09/06 02:17:03;;;;;;;;;;;;;;;21.59;100.00;101541.03;4952823;28;19930;-62
2022/09/06 02:19:33;;;;;;;;;;;;;;;21.60;100.00;101552.53;4963015;28;19926;-63
2022/09/06 02:22:02;;;;;;;;;;;;;;;21.53;100.00;101549.84;4952833;28;19930;-62
2022/09/06 02:24:31;;;;;;;;;;;;;;;21.57;100.00;101540.41;4954233;28;19926;-63
2022/09/06 02:26:57;;;;;;;;;;;;;;;21.60;100.00;101539.19;4951303;28;19930;-63
2022/09/06 02:29:23;;;;;;;;;;;;;;;21.61;100.00;101532.81;4961712;28;20386;-62
2022/09/06 02:31:57;;;;;;;;;;;;;;;21.59;100.00;101526.88;4955218;28;19930;-63
2022/09/06 02:34:23;;;;;;;;;;;;;;;21.62;100.00;101505.09;4949973;28;20310;-62
2022/09/06 02:36:50;;;;;;;;;;;;;;;21.55;100.00;101507.75;4957378;28;19938;-62
2022/09/06 02:39:16;;;;;;;;;;;;;;;21.52;100.00;101492.97;4950255;28;19930;-62
2022/09/06 02:41:44;;;;;;;;;;;;;;;21.46;100.00;101466.25;4955728;28;19933;-63
2022/09/06 02:44:10;;;;;;;;;;;;;;;21.46;100.00;101439.56;4953323;28;19930;-62
2022/09/06 02:46:36;;;;;;;;;;;;;;;21.46;100.00;101418.22;4947696;28;20506;-62
2022/09/06 02:49:03;;;;;;;;;;;;;;;21.53;100.00;101397.72;4953143;28;19948;-62
2022/09/06 02:51:29;;;;;;;;;;;;;;;21.47;100.00;101390.53;4948396;28;19926;-62
2022/09/06 02:53:56;;;;;;;;;;;;;;;21.50;100.00;101368.75;4962385;28;19931;-62
2022/09/06 02:56:22;;;;;;;;;;;;;;;21.46;100.00;101359.50;4961093;28;20611;-62
2022/09/06 02:58:48;;;;;;;;;;;;;;;21.35;100.00;101355.59;4956389;28;19933;-62
2022/09/06 03:01:15;;;;;;;;;;;;;;;21.30;100.00;101352.72;4954003;28;19927;-62
2022/09/06 03:03:41;;;;;;;;;;;;;;;21.22;100.00;101359.06;4965008;28;19936;-62
2022/09/06 03:06:07;;;;;;;;;;;;;;;21.21;100.00;101364.59;4965900;28;19950;-62
2022/09/06 03:08:35;;;;;;;;;;;;;;;21.17;100.00;101374.88;4952560;28;20017;-61
2022/09/06 03:11:01;;;;;;;;;;;;;;;21.02;100.00;101383.03;4958125;28;20010;-62
2022/09/06 03:13:28;;;;;;;;;;;;;;;20.93;100.00;101394.91;4956840;28;20416;-62
2022/09/06 03:15:55;;;;;;;;;;;;;;;20.86;100.00;101397.56;4960114;28;19926;-62
2022/09/06 03:18:23;;;;;;;;;;;;;;;20.78;100.00;101407.56;4958403;28;20383;-62
2022/09/06 03:20:49;;;;;;;;;;;;;;;20.68;100.00;101434.59;4950431;28;19933;-62
2022/09/06 03:23:19;;;;;;;;;;;;;;;20.56;100.00;101431.66;4950272;28;19926;-62
2022/09/06 03:25:45;;;;;;;;;;;;;;;20.58;100.00;101426.13;4954367;28;19926;-62
2022/09/06 03:28:12;;;;;;;;;;;;;;;20.61;100.00;101413.25;4956136;28;20236;-62
2022/09/06 03:30:39;;;;;;;;;;;;;;;20.67;100.00;101424.97;4949604;28;19934;-61
2022/09/06 03:33:06;;;;;;;;;;;;;;;20.67;100.00;101422.31;4951600;28;19927;-62
2022/09/06 03:35:32;;;;;;;;;;;;;;;20.68;100.00;101422.13;4949245;28;20009;-62
2022/09/06 03:37:58;;;;;;;;;;;;;;;20.74;100.00;101425.84;4944166;28;19932;-62
2022/09/06 03:40:25;;;;;;;;;;;;;;;20.76;100.00;101431.78;4955957;28;19930;-61
2022/09/06 03:42:51;;;;;;;;;;;;;;;20.76;100.00;101434.44;4953164;28;19936;-63
2022/09/06 03:45:17;;;;;;;;;;;;;;;20.70;100.00;101437.91;4958877;28;20402;-61
2022/09/06 03:47:44;;;;;;;;;;;;;;;20.79;100.00;101436.69;4955941;28;19932;-61
2022/09/06 03:50:10;;;;;;;;;;;;;;;20.75;100.00;101443.47;4960304;28;19936;-62
2022/09/06 03:52:36;;;;;;;;;;;;;;;20.79;100.00;101444.69;4959244;28;19937;-62
2022/09/06 03:55:03;;;;;;;;;;;;;;;20.70;100.00;101452.06;4948013;28;19938;-62
2022/09/06 03:57:29;;;;;;;;;;;;;;;20.70;100.00;101461.91;4964835;28;19934;-62
2022/09/06 03:59:56;;;;;;;;;;;;;;;20.66;100.00;101461.47;4958567;28;20592;-62
2022/09/06 04:02:22;;;;;;;;;;;;;;;20.66;100.00;101465.97;4951512;28;19938;-62
2022/09/06 04:04:48;;;;;;;;;;;;;;;20.68;100.00;101479.91;4954947;28;19934;-61
2022/09/06 04:07:15;;;;;;;;;;;;;;;20.60;100.00;101478.25;4955772;28;19931;-63
2022/09/06 04:09:41;;;;;;;;;;;;;;;20.59;100.00;101468.59;4957844;28;19933;-61
2022/09/06 04:12:07;;;;;;;;;;;;;;;20.63;100.00;101464.53;4958076;28;19930;-63
2022/09/06 04:14:34;;;;;;;;;;;;;;;20.64;100.00;101463.53;4952675;28;19926;-62
2022/09/06 04:17:00;;;;;;;;;;;;;;;20.66;100.00;101460.63;4950767;28;19935;-63
2022/09/06 04:19:26;;;;;;;;;;;;;;;20.65;100.00;101462.47;4956099;28;19930;-62
2022/09/06 04:21:53;;;;;;;;;;;;;;;20.65;100.00;101467.00;4951595;28;20387;-62
2022/09/06 04:24:19;;;;;;;;;;;;;;;20.63;100.00;101471.72;4962675;28;19930;-62
2022/09/06 04:26:45;;;;;;;;;;;;;;;20.62;100.00;101468.22;4967005;28;19968;-63
2022/09/06 04:29:12;;;;;;;;;;;;;;;20.61;100.00;101473.75;4946202;28;19930;-62
2022/09/06 04:31:38;;;;;;;;;;;;;;;20.59;100.00;101460.59;4949221;28;19930;-63
2022/09/06 04:34:05;;;;;;;;;;;;;;;20.59;100.00;101457.94;4953153;28;19926;-62
2022/09/06 04:36:31;;;;;;;;;;;;;;;20.57;100.00;101456.47;4954695;28;20303;-62
2022/09/06 04:38:57;;;;;;;;;;;;;;;20.54;100.00;101463.00;4960835;28;19931;-62
2022/09/06 04:41:23;;;;;;;;;;;;;;;20.45;100.00;101459.69;4960716;28;20387;-62
2022/09/06 04:43:50;;;;;;;;;;;;;;;20.45;100.00;101474.84;4961300;28;19932;-61
2022/09/06 04:46:18;;;;;;;;;;;;;;;20.44;100.00;101476.69;4950014;28;19937;-63
2022/09/06 04:48:45;;;;;;;;;;;;;;;20.48;100.00;101472.63;4951755;28;19930;-62
2022/09/06 04:51:12;;;;;;;;;;;;;;;20.50;100.00;101467.94;4950449;28;19942;-63
2022/09/06 04:53:38;;;;;;;;;;;;;;;20.51;100.00;101468.75;4958733;28;19937;-64
2022/09/06 04:56:05;;;;;;;;;;;;;;;20.50;100.00;101464.41;4949465;28;19933;-63
2022/09/06 04:58:31;;;;;;;;;;;;;;;20.49;100.00;101470.78;4944775;28;19930;-65
2022/09/06 05:00:57;;;;;;;;;;;;;;;20.47;100.00;101472.81;4954062;28;20012;-64
2022/09/06 05:03:24;;;;;;;;;;;;;;;20.44;100.00;101476.69;4948337;28;19930;-64
2022/09/06 05:05:50;;;;;;;;;;;;;;;20.44;100.00;101476.69;4959342;28;19930;-61
2022/09/06 05:08:17;;;;;;;;;;;;;;;20.49;100.00;101478.78;4949118;28;19931;-63
2022/09/06 05:10:43;;;;;;;;;;;;;;;20.53;100.00;101482.69;4952029;28;20327;-63
2022/09/06 05:13:10;;;;;;;;;;;;;;;20.54;100.00;101484.31;4955005;28;19936;-62
2022/09/06 05:15:36;;;;;;;;;;;;;;;20.55;100.00;101489.47;4956404;28;20391;-64
2022/09/06 05:18:03;;;;;;;;;;;;;;;20.55;100.00;101492.13;4958429;28;19930;-63
2022/09/06 05:20:30;;;;;;;;;;;;;;;20.49;100.00;101492.09;4958878;28;19930;-64
2022/09/06 05:22:56;;;;;;;;;;;;;;;20.47;100.00;101489.63;4951625;28;19937;-65
2022/09/06 05:25:22;;;;;;;;;;;;;;;20.41;100.00;101493.06;4939535;28;19926;-61
2022/09/06 05:27:49;;;;;;;;;;;;;;;20.39;100.00;101496.97;4958349;28;19930;-63
2022/09/06 05:30:16;;;;;;;;;;;;;;;20.43;100.00;101498.22;4951897;28;19934;-65
2022/09/06 05:32:43;;;;;;;;;;;;;;;20.41;100.00;101502.91;4950914;28;19930;-63
2022/09/06 05:35:09;;;;;;;;;;;;;;;20.36;100.00;101508.81;4963569;28;19930;-63
2022/09/06 05:37:35;;;;;;;;;;;;;;;20.35;100.00;101509.84;4963181;28;20037;-64
2022/09/06 05:40:02;;;;;;;;;;;;;;;20.34;100.00;101521.50;4962182;28;19934;-63
2022/09/06 05:42:28;;;;;;;;;;;;;;;20.35;100.00;101528.50;4947563;28;19930;-64
2022/09/06 05:44:55;;;;;;;;;;;;;;;20.37;100.00;101534.44;4955538;28;20393;-64
2022/09/06 05:47:21;;;;;;;;;;;;;;;20.35;100.00;101531.97;4944626;28;19931;-64
2022/09/06 05:49:47;;;;;;;;;;;;;;;20.43;100.00;101539.00;4957918;28;19932;-63
2022/09/06 05:52:16;;;;;;;;;;;;;;;20.48;100.00;101538.41;4955860;28;19934;-63
2022/09/06 05:54:42;;;;;;;;;;;;;;;20.51;100.00;101541.50;4946174;28;19930;-63
2022/09/06 05:57:08;;;;;;;;;;;;;;;20.54;100.00;101549.13;4961987;28;19930;-64
2022/09/06 05:59:35;;;;;;;;;;;;;;;20.52;100.00;101548.50;4954954;28;19934;-64
2022/09/06 06:02:01;;;;;;;;;;;;;;;20.58;100.00;101554.06;4959821;28;19952;-64
2022/09/06 06:04:32;;;;;;;;;;;;;;;20.59;100.00;101551.22;4957206;28;19926;-64
2022/09/06 06:06:58;;;;;;;;;;;;;;;20.56;100.00;101551.56;4954576;28;19926;-64
2022/09/06 06:09:25;;;;;;;;;;;;;;;20.52;100.00;101555.66;4950359;28;19930;-64
2022/09/06 06:11:51;;;;;;;;;;;;;;;20.46;100.00;101557.25;4943686;28;19941;-64
2022/09/06 06:14:18;;;;;;;;;;;;;;;20.35;100.00;101569.28;4959219;28;20410;-64
2022/09/06 06:16:44;;;;;;;;;;;;;;;20.29;100.00;101559.38;4950549;28;20311;-64
2022/09/06 06:19:11;;;;;;;;;;;;;;;20.27;100.00;101549.94;4957972;28;19981;-64
2022/09/06 06:21:37;;;;;;;;;;;;;;;20.33;100.00;101565.97;4951500;28;19930;-64
2022/09/06 06:24:04;;;;;;;;;;;;;;;20.33;100.00;101557.16;4953890;28;19930;-63
2022/09/06 06:26:32;;;;;;;;;;;;;;;20.26;100.00;101567.75;4963152;28;20739;-65
2022/09/06 06:29:00;;;;;;;;;;;;;;;20.24;100.00;101560.97;4951323;28;19926;-64
2022/09/06 06:31:28;;;;;;;;;;;;;;;20.25;100.00;101560.78;4961803;28;19937;-63
2022/09/06 06:33:54;;;;;;;;;;;;;;;20.21;100.00;101558.69;4941913;28;19934;-64
2022/09/06 06:36:22;;;;;;;;;;;;;;;20.25;100.00;101552.81;4958201;28;19930;-64
2022/09/06 06:38:50;;;;;;;;;;;;;;;20.28;100.00;101560.38;4948952;28;20280;-64
2022/09/06 06:41:17;;;;;;;;;;;;;;;20.28;100.00;101559.56;4956566;28;19985;-65
2022/09/06 06:43:43;;;;;;;;;;;;;;;20.20;100.00;101565.88;4958066;28;19937;-63
2022/09/06 06:46:11;;;;;;;;;;;;;;;20.23;100.00;101560.16;4951073;28;19931;-64
2022/09/06 06:48:42;;;;;;;;;;;;;;;20.29;100.00;101550.59;4954565;28;20380;-64
2022/09/06 06:51:12;;;;;;;;;;;;;;;20.32;100.00;101552.84;4940043;28;19958;-64
2022/09/06 06:53:39;;;;;;;;;;;;;;;20.35;100.00;101553.28;4950431;28;19930;-64
2022/09/06 06:56:24;;;;;;;;;;;;;;;20.35;100.00;101547.97;4946156;28;19933;-64
2022/09/06 06:58:52;;;;;;;;;;;;;;;20.40;100.00;101544.69;4963897;28;20492;-64
2022/09/06 07:01:19;;;;;;;;;;;;;;;20.38;100.00;101541.41;4954605;28;20344;-64
2022/09/06 07:03:46;;;;;;;;;;;;;;;20.39;100.00;101547.59;4947495;28;20497;-64
2022/09/06 07:06:12;;;;;;;;;;;;;;;20.44;100.00;101531.81;4955964;28;19926;-64
2022/09/06 07:08:39;;;;;;;;;;;;;;;20.42;100.00;101531.19;4946955;28;19957;-64
2022/09/06 07:11:06;;;;;;;;;;;;;;;20.53;100.00;101522.66;4955680;28;19927;-63
2022/09/06 07:13:33;;;;;;;;;;;;;;;20.57;100.00;101523.91;4942879;28;19948;-64
2022/09/06 07:16:10;;;;;;;;;;;;;;;20.61;100.00;101522.53;4961003;28;19926;-64
2022/09/06 07:18:40;;;;;;;;;;;;;;;20.67;100.00;101516.41;4953253;28;19930;-64
2022/09/06 07:21:17;;;;;;;;;;;;;;;20.70;100.00;101518.69;4954272;28;19931;-64
2022/09/06 07:24:04;;;;;;;;;;;;;;;20.74;100.00;101511.13;4944967;28;20394;-63
2022/09/06 07:26:32;;;;;;;;;;;;;;;20.78;100.00;101507.06;4954649;28;20028;-65
2022/09/06 07:28:59;;;;;;;;;;;;;;;20.84;100.00;101502.78;4955111;28;19926;-64
2022/09/06 07:31:26;;;;;;;;;;;;;;;20.87;100.00;101511.19;4943512;28;19937;-64
2022/09/06 07:34:13;;;;;;;;;;;;;;;20.90;100.00;101513.47;4954937;28;19934;-63
2022/09/06 07:36:39;;;;;;;;;;;;;;;20.94;100.00;101514.72;4952766;28;19926;-66
2022/09/06 07:39:06;;;;;;;;;;;;;;;21.03;100.00;101515.38;4965618;28;19947;-65
2022/09/06 07:41:32;;;;;;;;;;;;;;;21.06;100.00;101511.50;4953251;28;19926;-65
2022/09/06 07:43:59;;;;;;;;;;;;;;;21.09;100.00;101517.25;4954181;28;19932;-63
2022/09/06 07:46:25;;;;;;;;;;;;;;;21.10;100.00;101516.22;4956342;28;20324;-65
2022/09/06 07:48:51;;;;;;;;;;;;;;;21.07;100.00;101518.44;4952607;28;19937;-64
2022/09/06 07:51:19;;;;;;;;;;;;;;;21.17;100.00;101524.25;4964750;28;19926;-64
2022/09/06 07:53:49;;;;;;;;;;;;;;;21.29;100.00;101517.31;4950034;28;19930;-64
2022/09/06 07:56:18;;;;;;;;;;;;;;;21.35;100.00;101512.22;4957040;28;19973;-64
2022/09/06 07:58:45;;;;;;;;;;;;;;;21.38;100.00;101517.94;4941769;28;19933;-64
2022/09/06 08:01:17;;;;;;;;;;;;;;;21.48;100.00;101523.78;4954400;28;20414;-65
2022/09/06 08:03:44;;;;;;;;;;;;;;;21.53;100.00;101512.47;4960043;28;19926;-64
2022/09/06 08:06:11;;;;;;;;;;;;;;;21.58;100.00;101506.53;4951217;28;19937;-64
2022/09/06 08:08:37;;;;;;;;;;;;;;;21.59;100.00;101505.50;4953128;28;19937;-63
2022/09/06 08:11:25;;;;;;;;;;;;;;;21.64;100.00;101501.22;4950141;28;19930;-64
2022/09/06 08:13:53;;;;;;;;;;;;;;;21.71;100.00;101502.03;4953728;28;19934;-65
2022/09/06 08:16:20;;;;;;;;;;;;;;;21.84;100.00;101495.06;4954990;28;19930;-64
2022/09/06 08:18:51;;;;;;;;;;;;;;;21.98;100.00;101501.25;4958860;28;19973;-64
2022/09/06 08:21:17;;;;;;;;;;;;;;;22.13;100.00;101501.84;4950861;28;19937;-64
2022/09/06 08:23:48;;;;;;;;;;;;;;;22.28;100.00;101507.81;4969202;28;19932;-64
2022/09/06 08:26:15;;;;;;;;;;;;;;;22.47;100.00;101500.78;4952878;28;19930;-65
2022/09/06 08:28:42;;;;;;;;;;;;;;;22.64;100.00;101501.19;4947130;28;19936;-64
2022/09/06 08:31:09;;;;;;;;;;;;;;;22.83;100.00;101499.44;4957908;28;20307;-64
2022/09/06 08:33:36;;;;;;;;;;;;;;;23.01;100.00;101497.94;4946734;28;19934;-64
2022/09/06 08:36:03;;;;;;;;;;;;;;;23.16;100.00;101495.03;4956090;28;19934;-64
2022/09/06 08:38:29;;;;;;;;;;;;;;;23.44;100.00;101502.69;4950958;28;21057;-65
2022/09/06 08:41:06;;;;;;;;;;;;;;;23.62;100.00;101500.13;4950548;28;19930;-65
2022/09/06 08:43:33;;;;;;;;;;;;;;;23.79;94.60;101494.25;4949593;28;19926;-64
2022/09/06 08:46:00;;;;;;;;;;;;;;;23.93;95.83;101493.09;4949583;28;20367;-64
2022/09/06 08:48:29;;;;;;;;;;;;;;;24.06;93.88;101497.53;4956057;28;20363;-64
2022/09/06 08:51:27;;;;;;;;;;;;;;;24.20;94.80;101506.25;4951455;28;19968;-63
2022/09/06 08:53:58;;;;;;;;;;;;;;;24.49;91.46;101491.34;4949500;28;20019;-63
2022/09/06 08:56:33;;;;;;;;;;;;;;;24.73;93.77;101494.19;4941825;28;19937;-62
2022/09/06 08:59:10;;;;;;;;;;;;;;;24.93;90.57;101494.75;4952907;28;20295;-64
2022/09/06 09:01:44;;;;;;;;;;;;;;;25.10;87.96;101494.16;4950410;28;19926;-64
2022/09/06 09:04:13;;;;;;;;;;;;;;;25.18;82.49;101500.00;4953417;28;20457;-64
2022/09/06 09:06:40;;;;;;;;;;;;;;;25.26;82.35;101488.16;4940946;28;19949;-64
2022/09/06 09:09:12;;;;;;;;;;;;;;;25.39;77.79;101479.13;4957702;28;19940;-64
2022/09/06 09:11:42;;;;;;;;;;;;;;;25.51;77.86;101468.41;4959880;28;19957;-65
2022/09/06 09:14:19;;;;;;;;;;;;;;;25.75;80.59;101469.25;4953789;28;20408;-65
2022/09/06 09:16:49;;;;;;;;;;;;;;;25.92;75.51;101467.53;4951221;28;20384;-62
2022/09/06 09:19:15;;;;;;;;;;;;;;;26.03;77.67;101460.53;4946336;28;19941;-62
2022/09/06 09:21:42;;;;;;;;;;;;;;;26.21;75.61;101459.59;4948468;28;19937;-61
2022/09/06 09:24:09;;;;;;;;;;;;;;;26.40;75.25;101457.56;4949367;28;20524;-63
2022/09/06 09:26:38;;;;;;;;;;;;;;;26.59;74.13;101455.56;4963752;28;19937;-62
2022/09/06 09:29:06;;;;;;;;;;;;;;;26.69;73.13;101455.78;4956845;28;19949;-62
2022/09/06 09:31:34;;;;;;;;;;;;;;;26.68;68.90;101459.53;4946860;28;20335;-62
2022/09/06 09:34:03;;;;;;;;;;;;;;;26.73;70.18;101456.13;4954890;28;19930;-64
2022/09/06 09:36:30;;;;;;;;;;;;;;;26.90;71.45;101450.81;4950054;28;20012;-64
2022/09/06 09:38:57;;;;;;;;;;;;;;;27.11;73.32;101447.44;4954931;28;19941;-65
2022/09/06 09:41:29;;;;;;;;;;;;;;;27.34;71.21;101441.09;4945393;28;19930;-65
2022/09/06 09:44:03;;;;;;;;;;;;;;;27.39;67.28;101435.00;4955171;28;19930;-63
2022/09/06 09:46:32;;;;;;;;;;;;;;;27.74;70.45;101436.63;4953628;28;19926;-62
2022/09/06 09:49:04;;;;;;;;;;;;;;;27.89;66.13;101444.16;4946757;28;20315;-62
2022/09/06 09:51:32;;;;;;;;;;;;;;;27.93;65.95;101446.13;4950303;28;20298;-62
2022/09/06 09:54:02;;;;;;;;;;;;;;;27.90;62.87;101452.00;4953823;28;20422;-62
2022/09/06 09:56:36;;;;;;;;;;;;;;;27.86;61.11;101455.41;4958657;28;19926;-63
2022/09/06 09:59:07;;;;;;;;;;;;;;;28.10;62.45;101450.66;4947051;28;19937;-63
2022/09/06 10:01:33;;;;;;;;;;;;;;;28.28;63.44;101447.66;4952269;28;19933;-63
2022/09/06 10:04:02;;;;;;;;;;;;;;;28.34;62.54;101445.84;4937768;28;19926;-62
2022/09/06 10:06:48;;;;;;;;;;;;;;;28.53;63.07;101451.78;4952971;28;19937;-62
2022/09/06 10:09:36;;;;;;;;;;;;;;;28.67;62.30;101442.22;4944861;28;19941;-62
2022/09/06 10:12:02;;;;;;;;;;;;;;;28.95;63.87;101435.78;4951248;28;19985;-62
2022/09/06 10:14:38;;;;;;;;;;;;;;;28.77;58.83;101444.22;4952500;28;19931;-62
2022/09/06 10:17:05;;;;;;;;;;;;;;;28.83;59.74;101440.50;4943964;28;19962;-61
2022/09/06 10:19:39;;;;;;;;;;;;;;;29.07;60.91;101441.03;4951580;28;19930;-62
2022/09/06 10:22:10;;;;;;;;;;;;;;;29.12;60.08;101438.41;4953097;28;20402;-65
2022/09/06 10:24:52;;;;;;;;;;;;;;;29.11;57.90;101444.84;4961312;28;19930;-63
2022/09/06 10:27:22;;;;;;;;;;;;;;;29.09;57.01;101447.00;4955781;28;19937;-62
2022/09/06 10:29:59;;;;;;;;;;;;;;;29.38;58.78;101446.72;4960899;28;20538;-63
2022/09/06 10:32:25;;;;;;;;;;;;;;;29.49;57.31;101445.75;4940089;28;20397;-63
2022/09/06 10:34:59;;;;;;;;;;;;;;;29.62;58.22;101440.97;4949338;28;20033;-64
2022/09/06 10:37:38;;;;;;;;;;;;;;;29.88;57.79;101436.59;4949667;28;19941;-64
2022/09/06 10:40:06;;;;;;;;;;;;;;;29.80;55.71;101437.91;4946217;28;19926;-63
2022/09/06 10:42:45;;;;;;;;;;;;;;;29.86;55.36;101431.44;4954583;28;19938;-63
2022/09/06 10:45:30;;;;;;;;;;;;;;;30.15;58.40;101426.47;4945072;28;19936;-63
2022/09/06 10:48:08;;;;;;;;;;;;;;;30.23;55.06;101425.13;4944923;28;19934;-63
2022/09/06 10:50:49;;;;;;;;;;;;;;;30.27;54.90;101428.13;4954776;28;20434;-63
2022/09/06 10:53:23;;;;;;;;;;;;;;;30.22;54.90;101423.50;4950653;28;19933;-63
2022/09/06 10:56:00;;;;;;;;;;;;;;;30.25;55.54;101422.97;4944792;28;19926;-63
2022/09/06 10:58:30;;;;;;;;;;;;;;;30.27;55.24;101422.72;4954285;28;20685;-63
2022/09/06 11:01:25;;;;;;;;;;;;;;;30.15;52.83;101422.94;4942694;28;19926;-63
2022/09/06 11:03:54;;;;;;;;;;;;;;;30.47;54.42;101430.94;4952157;28;20379;-63
2022/09/06 11:06:30;;;;;;;;;;;;;;;30.32;54.46;101436.28;4944633;28;20685;-63
2022/09/06 11:09:01;;;;;;;;;;;;;;;30.53;55.44;101437.19;4951742;28;19935;-64
2022/09/06 11:11:34;;;;;;;;;;;;;;;30.41;54.40;101440.13;4952518;28;19930;-63
2022/09/06 11:14:03;;;;;;;;;;;;;;;30.33;54.26;101441.44;4947110;28;19985;-63
2022/09/06 11:16:38;;;;;;;;;;;;;;;30.43;54.83;101437.16;4952425;28;19930;-63
2022/09/06 11:19:16;;;;;;;;;;;;;;;30.53;54.79;101438.00;4952687;28;20298;-63
2022/09/06 11:22:11;;;;;;;;;;;;;;;30.70;53.19;101434.28;4962421;28;20371;-63
2022/09/06 11:24:51;;;;;;;;;;;;;;;30.69;54.46;101438.03;4954272;28;19938;-64
2022/09/06 11:27:25;;;;;;;;;;;;;;;30.90;53.95;101437.03;4956163;28;20291;-63
2022/09/06 11:29:55;;;;;;;;;;;;;;;30.87;53.02;101450.25;4946170;28;19926;-63
2022/09/06 11:32:27;;;;;;;;;;;;;;;30.96;54.25;101445.19;4962873;28;20009;-63
2022/09/06 11:34:55;;;;;;;;;;;;;;;31.27;54.06;101449.53;4949230;28;20504;-63
2022/09/06 11:37:26;;;;;;;;;;;;;;;31.14;52.03;101458.19;4956590;28;19927;-62
2022/09/06 11:40:05;;;;;;;;;;;;;;;31.20;52.25;101451.69;4957439;28;20080;-61
2022/09/06 11:42:51;;;;;;;;;;;;;;;31.55;52.70;101460.94;4952874;28;19974;-63
2022/09/06 11:45:36;;;;;;;;;;;;;;;31.45;51.44;101450.09;4958297;28;19941;-63
2022/09/06 11:48:35;;;;;;;;;;;;;;;31.71;51.87;101456.31;4948651;28;19938;-64
2022/09/06 11:51:05;;;;;;;;;;;;;;;31.76;51.29;101458.22;4928956;28;19949;-64
2022/09/06 11:53:54;;;;;;;;;;;;;;;31.73;51.92;101456.84;4960654;28;20020;-63
2022/09/06 11:56:31;;;;;;;;;;;;;;;31.66;51.05;101451.72;4952107;28;19930;-63
2022/09/06 11:59:20;;;;;;;;;;;;;;;31.91;50.67;101452.75;4958203;28;19937;-63
2022/09/06 12:01:55;;;;;;;;;;;;;;;31.95;50.87;101456.53;4956236;28;19930;-63
2022/09/06 12:04:22;;;;;;;;;;;;;;;31.91;51.76;101461.72;4963249;28;20375;-63
2022/09/06 12:07:08;;;;;;;;;;;;;;;32.23;52.35;101448.91;4965750;28;20302;-63
2022/09/06 12:09:39;;;;;;;;;;;;;;;32.37;49.91;101440.97;4941375;28;20535;-64
2022/09/06 12:12:06;;;;;;;;;;;;;;;32.02;51.31;101442.72;4955205;28;19941;-63
2022/09/06 12:14:35;;;;;;;;;;;;;;;31.92;50.50;101441.63;4959976;28;19937;-64
2022/09/06 12:17:03;;;;;;;;;;;;;;;32.06;51.75;101444.59;4958824;28;19927;-63
2022/09/06 12:19:40;;;;;;;;;;;;;;;32.28;51.17;101443.44;4967200;28;19949;-63
2022/09/06 12:22:40;;;;;;;;;;;;;;;32.46;51.23;101439.28;4944078;28;19993;-63
2022/09/06 12:25:17;;;;;;;;;;;;;;;32.38;51.06;101437.97;4951016;28;19934;-63
2022/09/06 12:27:55;;;;;;;;;;;;;;;32.68;51.34;101439.75;4946660;28;20013;-62
2022/09/06 12:30:38;;;;;;;;;;;;;;;32.77;49.92;101433.72;4961055;28;19926;-64
2022/09/06 12:33:06;;;;;;;;;;;;;;;32.78;49.42;101428.03;4952952;28;19934;-63
2022/09/06 12:35:33;;;;;;;;;;;;;;;32.82;49.79;101426.34;4955566;28;19930;-63
2022/09/06 12:38:23;;;;;;;;;;;;;;;32.80;49.98;101425.84;4943262;28;19930;-63
2022/09/06 12:40:55;;;;;;;;;;;;;;;32.83;49.99;101417.13;4953038;28;19934;-63
2022/09/06 12:43:21;;;;;;;;;;;;;;;32.70;50.75;101417.75;4950702;28;19932;-63
2022/09/06 12:45:50;;;;;;;;;;;;;;;32.66;50.36;101411.25;4956780;28;20685;-63